Time;durP1;ratioP1;P1;durP2;ratioP2;P2;SDS_P1;SDS_P2;PMS_P1;PMS_P2;Temp;Humidity;BMP_temperature;BMP_pressure;BME280_temperature;BME280_humidity;BME280_pressure;Samples;Min_cycle;Max_cycle;Signal;HPM_P1;HPM_P2
2021/08/27 00:00:12;;;;;;;13.77;8.15;;;;;;;11.90;100.00;95619.88;1040536;28;20021;-65
2021/08/27 00:00:42;;;;;;;12.80;8.00;;;;;;;11.94;100.00;95623.59;1040610;28;20029;-65
2021/08/27 00:01:13;;;;;;;13.83;7.90;;;;;;;11.93;100.00;95622.00;1040745;28;20021;-65
2021/08/27 00:01:43;;;;;;;13.60;8.53;;;;;;;11.91;100.00;95618.78;1036560;28;20490;-65
2021/08/27 00:02:13;;;;;;;12.53;7.70;;;;;;;11.91;100.00;95618.00;1036908;28;20018;-65
2021/08/27 00:02:44;;;;;;;15.83;8.53;;;;;;;11.84;100.00;95620.25;1036438;28;20022;-65
2021/08/27 00:03:14;;;;;;;14.57;8.23;;;;;;;11.86;100.00;95612.72;1040702;28;20021;-65
2021/08/27 00:03:45;;;;;;;15.80;8.30;;;;;;;11.89;100.00;95615.63;1040775;28;20394;-65
2021/08/27 00:04:15;;;;;;;14.60;8.87;;;;;;;11.89;100.00;95615.63;1036656;28;20459;-65
2021/08/27 00:04:45;;;;;;;12.93;8.13;;;;;;;11.90;100.00;95611.84;1040675;28;20025;-65
2021/08/27 00:05:16;;;;;;;17.20;8.30;;;;;;;11.91;100.00;95613.44;1040479;28;20021;-65
2021/08/27 00:05:46;;;;;;;15.90;7.87;;;;;;;11.92;100.00;95619.59;1036378;28;20491;-65
2021/08/27 00:06:17;;;;;;;13.23;8.17;;;;;;;11.90;100.00;95616.41;1040777;28;20044;-65
2021/08/27 00:06:47;;;;;;;11.77;8.03;;;;;;;11.89;100.00;95612.94;1040759;28;20018;-65
2021/08/27 00:07:18;;;;;;;14.63;8.70;;;;;;;11.89;100.00;95612.16;1040731;28;20037;-65
2021/08/27 00:07:48;;;;;;;13.23;8.43;;;;;;;11.90;100.00;95611.06;1044704;28;20036;-64
2021/08/27 00:08:18;;;;;;;13.93;8.20;;;;;;;11.90;100.00;95609.19;1040708;28;20024;-66
2021/08/27 00:08:49;;;;;;;13.43;8.70;;;;;;;11.90;100.00;95609.19;1036534;28;20491;-65
2021/08/27 00:09:19;;;;;;;17.93;9.30;;;;;;;11.91;100.00;95618.00;1032585;28;20026;-65
2021/08/27 00:09:50;;;;;;;14.63;8.90;;;;;;;11.92;100.00;95612.34;1032629;28;20038;-65
2021/08/27 00:10:20;;;;;;;13.07;8.87;;;;;;;11.90;100.00;95613.75;1036702;28;20029;-66
2021/08/27 00:10:51;;;;;;;14.53;8.67;;;;;;;11.90;100.00;95608.38;1028592;28;20030;-65
2021/08/27 00:11:21;;;;;;;15.50;8.20;;;;;;;11.90;100.00;95614.53;1032547;28;20030;-65
2021/08/27 00:11:52;;;;;;;14.10;7.57;;;;;;;11.88;100.00;95611.34;1032551;28;20022;-65
2021/08/27 00:12:23;;;;;;;15.23;8.45;;;;;;;11.87;100.00;95609.75;1033972;28;20065;-66
2021/08/27 00:12:53;;;;;;;17.70;8.57;;;;;;;11.86;100.00;95608.16;1044840;28;20033;-67
2021/08/27 00:13:24;;;;;;;12.73;7.87;;;;;;;11.88;100.00;95611.34;1040846;28;20029;-65
2021/08/27 00:13:54;;;;;;;12.47;7.77;;;;;;;11.90;100.00;95609.19;1044804;28;20036;-65
2021/08/27 00:14:25;;;;;;;12.23;7.97;;;;;;;11.90;100.00;95613.75;1036593;28;20029;-65
2021/08/27 00:14:56;;;;;;;15.05;8.63;;;;;;;11.89;100.00;95610.25;1028692;28;20037;-65
2021/08/27 00:15:26;;;;;;;17.97;7.93;;;;;;;11.89;100.00;95609.47;1028494;28;20035;-65
2021/08/27 00:15:57;;;;;;;15.20;8.97;;;;;;;11.87;100.00;95609.75;1029002;28;20030;-65
2021/08/27 00:16:28;;;;;;;14.17;8.03;;;;;;;11.89;100.00;95604.91;1028846;28;20023;-66
2021/08/27 00:16:58;;;;;;;13.73;8.07;;;;;;;11.89;100.00;95604.91;1032697;28;20026;-65
2021/08/27 00:17:31;;;;;;;14.37;8.37;;;;;;;11.91;100.00;95612.66;1036513;28;20418;-65
2021/08/27 00:18:02;;;;;;;12.15;7.65;;;;;;;11.94;100.00;95612.09;1037521;28;20036;-65
2021/08/27 00:18:32;;;;;;;13.70;7.70;;;;;;;11.92;100.00;95607.00;1044749;28;20036;-65
2021/08/27 00:19:03;;;;;;;14.90;8.67;;;;;;;11.91;100.00;95610.75;1036476;28;20036;-66
2021/08/27 00:19:33;;;;;;;15.20;8.47;;;;;;;11.87;100.00;95606.28;1032480;28;20467;-65
2021/08/27 00:20:05;;;;;;;15.90;8.60;;;;;;;11.88;100.00;95605.22;1032383;28;20058;-65
2021/08/27 00:20:38;;;;;;;15.20;8.27;;;;;;;11.92;100.00;95603.53;1037084;28;20062;-65
2021/08/27 00:21:08;;;;;;;13.43;8.55;;;;;;;11.95;100.00;95611.00;1044761;28;20017;-66
2021/08/27 00:21:38;;;;;;;14.43;7.77;;;;;;;11.94;100.00;95607.53;1045035;28;20021;-65
2021/08/27 00:22:09;;;;;;;13.47;7.97;;;;;;;11.95;100.00;95611.00;1045167;28;20029;-66
2021/08/27 00:22:39;;;;;;;12.87;7.90;;;;;;;11.99;100.00;95611.22;1044729;28;20025;-65
2021/08/27 00:23:10;;;;;;;14.73;8.10;;;;;;;11.98;100.00;95605.06;1040574;28;20056;-65
2021/08/27 00:23:40;;;;;;;14.17;8.13;;;;;;;11.99;100.00;95606.66;1036514;28;20025;-65
2021/08/27 00:24:11;;;;;;;13.53;7.97;;;;;;;11.99;100.00;95606.66;1036603;28;20022;-65
2021/08/27 00:24:41;;;;;;;12.87;7.47;;;;;;;12.01;100.00;95603.69;1032607;28;20024;-65
2021/08/27 00:25:11;;;;;;;16.10;8.20;;;;;;;11.96;100.00;95608.03;1040782;28;20382;-65
2021/08/27 00:25:42;;;;;;;13.43;7.80;;;;;;;11.97;100.00;95606.13;1044672;28;20458;-66
2021/08/27 00:26:12;;;;;;;15.13;7.77;;;;;;;11.94;100.00;95615.56;1040738;28;20032;-66
2021/08/27 00:26:43;;;;;;;11.97;7.40;;;;;;;11.95;100.00;95608.31;1044768;28;20025;-65
2021/08/27 00:27:13;;;;;;;12.93;7.50;;;;;;;11.94;100.00;95612.09;1040744;28;20515;-66
2021/08/27 00:27:44;;;;;;;17.50;8.20;;;;;;;11.94;100.00;95610.19;1040620;28;20037;-66
2021/08/27 00:28:14;;;;;;;14.33;7.57;;;;;;;11.95;100.00;95617.16;1040605;28;20454;-65
2021/08/27 00:28:44;;;;;;;12.87;7.53;;;;;;;11.96;100.00;95615.25;1040551;28;20071;-66
2021/08/27 00:29:15;;;;;;;16.23;8.67;;;;;;;11.93;100.00;95619.31;1040723;28;20021;-66
2021/08/27 00:29:45;;;;;;;13.63;8.50;;;;;;;11.92;100.00;95612.34;1040579;28;20368;-65
2021/08/27 00:30:16;;;;;;;14.77;8.63;;;;;;;11.90;100.00;95611.06;1040591;28;20466;-65
2021/08/27 00:30:46;;;;;;;13.63;7.73;;;;;;;11.90;100.00;95613.75;1036571;28;20017;-66
2021/08/27 00:31:16;;;;;;;14.37;8.40;;;;;;;11.88;100.00;95610.56;1036620;28;20506;-66
2021/08/27 00:31:47;;;;;;;15.17;8.50;;;;;;;11.85;100.00;95616.47;1036549;28;20022;-66
2021/08/27 00:32:17;;;;;;;15.33;8.37;;;;;;;11.79;100.00;95615.72;1032417;28;20491;-66
2021/08/27 00:32:48;;;;;;;20.27;9.13;;;;;;;11.78;100.00;95616.81;1032306;28;20034;-66
2021/08/27 00:33:18;;;;;;;18.53;8.87;;;;;;;11.76;100.00;95610.13;1032506;28;20030;-66
2021/08/27 00:33:48;;;;;;;16.00;8.43;;;;;;;11.74;100.00;95612.31;1032487;28;20533;-66
2021/08/27 00:34:19;;;;;;;20.67;10.07;;;;;;;11.67;100.00;95609.97;1036340;28;20092;-66
2021/08/27 00:34:49;;;;;;;18.67;9.57;;;;;;;11.62;100.00;95605.47;1040614;28;20084;-66
2021/08/27 00:35:20;;;;;;;20.10;9.20;;;;;;;11.61;100.00;95611.09;1040777;28;20030;-66
2021/08/27 00:35:50;;;;;;;14.80;8.77;;;;;;;11.57;100.00;95607.44;1044716;28;20021;-66
2021/08/27 00:36:21;;;;;;;14.73;9.50;;;;;;;11.57;100.00;95610.09;1044766;28;20024;-66
2021/08/27 00:36:51;;;;;;;16.27;8.93;;;;;;;11.55;100.00;95613.03;1044672;28;20095;-67
2021/08/27 00:37:22;;;;;;;18.47;9.53;;;;;;;11.55;100.00;95617.59;1040675;28;20024;-66
2021/08/27 00:37:52;;;;;;;18.10;9.73;;;;;;;11.55;100.00;95617.59;1040628;28;20079;-66
2021/08/27 00:38:22;;;;;;;16.70;9.80;;;;;;;11.52;100.00;95610.94;1036346;28;20029;-66
2021/08/27 00:38:53;;;;;;;18.57;10.07;;;;;;;11.50;100.00;95612.31;1032379;28;20414;-66
2021/08/27 00:39:23;;;;;;;15.90;9.30;;;;;;;11.50;100.00;95609.63;1028537;28;20494;-66
2021/08/27 00:39:54;;;;;;;18.57;11.17;;;;;;;11.48;100.00;95611.81;1024463;28;20027;-66
2021/08/27 00:40:24;;;;;;;15.47;9.17;;;;;;;11.42;100.00;95616.41;1028311;28;20030;-66
2021/08/27 00:40:54;;;;;;;17.90;9.30;;;;;;;11.43;100.00;95612.66;1024472;28;20019;-66
2021/08/27 00:41:25;;;;;;;18.80;9.93;;;;;;;11.42;100.00;95611.84;1028588;28;20033;-66
2021/08/27 00:41:55;;;;;;;17.50;9.40;;;;;;;11.43;100.00;95613.44;1036538;28;20033;-66
2021/08/27 00:42:26;;;;;;;16.97;10.53;;;;;;;11.43;100.00;95610.75;1040344;28;20097;-66
2021/08/27 00:42:56;;;;;;;20.30;9.63;;;;;;;11.43;100.00;95615.31;1036424;28;20088;-66
2021/08/27 00:43:27;;;;;;;16.63;10.37;;;;;;;11.41;100.00;95612.94;1032409;28;20030;-66
2021/08/27 00:43:57;;;;;;;19.13;11.00;;;;;;;11.41;100.00;95604.91;1028512;28;20034;-66
2021/08/27 00:44:27;;;;;;;17.90;10.03;;;;;;;11.41;100.00;95615.63;1032553;28;20022;-66
2021/08/27 00:44:58;;;;;;;16.77;10.07;;;;;;;11.41;100.00;95610.25;1032476;28;20034;-66
2021/08/27 00:45:28;;;;;;;18.23;10.13;;;;;;;11.42;100.00;95605.72;1037705;28;20036;-66
2021/08/27 00:45:59;;;;;;;17.47;9.97;;;;;;;11.38;100.00;95610.81;1044699;28;20028;-67
2021/08/27 00:46:29;;;;;;;16.73;9.97;;;;;;;11.39;100.00;95616.97;1040635;28;20025;-67
2021/08/27 00:46:59;;;;;;;20.63;10.07;;;;;;;11.37;100.00;95611.91;1040512;28;20065;-67
2021/08/27 00:47:30;;;;;;;20.40;10.43;;;;;;;11.38;100.00;95613.50;1040590;28;20018;-67
2021/08/27 00:48:00;;;;;;;16.77;10.47;;;;;;;11.34;100.00;95611.66;1040574;28;20025;-67
2021/08/27 00:48:31;;;;;;;23.03;10.10;;;;;;;11.35;100.00;95613.25;1040892;28;20017;-67
2021/08/27 00:49:01;;;;;;;18.07;10.33;;;;;;;11.35;100.00;95613.25;1040468;28;20021;-67
2021/08/27 00:49:32;;;;;;;23.63;10.47;;;;;;;11.34;100.00;95607.13;1040568;28;20038;-67
2021/08/27 00:50:03;;;;;;;18.73;10.23;;;;;;;11.34;100.00;95606.31;1036426;28;20084;-68
2021/08/27 00:50:34;;;;;;;19.38;11.02;;;;;;;11.34;100.00;95601.75;1032464;28;20117;-67
2021/08/27 00:51:04;;;;;;;19.57;10.90;;;;;;;11.34;100.00;95607.13;1036335;28;20026;-67
2021/08/27 00:51:35;;;;;;;17.33;10.40;;;;;;;11.32;100.00;95605.81;1032654;28;20046;-67
2021/08/27 00:52:05;;;;;;;17.40;10.00;;;;;;;11.32;100.00;95608.50;1032501;28;20518;-67
2021/08/27 00:52:37;;;;;;;19.23;10.57;;;;;;;11.31;100.00;95599.66;1036369;28;20025;-66
2021/08/27 00:53:08;;;;;;;22.38;10.60;;;;;;;11.31;100.00;95602.34;1040853;28;20588;-67
2021/08/27 00:53:38;;;;;;;21.03;10.50;;;;;;;11.32;100.00;95601.25;1044699;28;20028;-67
2021/08/27 00:54:08;;;;;;;22.37;11.60;;;;;;;11.34;100.00;95603.66;1036488;28;20018;-67
2021/08/27 00:54:40;;;;;;;20.73;10.53;;;;;;;11.31;100.00;95604.19;1032642;28;20081;-67
2021/08/27 00:55:10;;;;;;;17.42;10.27;;;;;;;11.29;100.00;95609.03;1036318;28;20045;-67
2021/08/27 00:55:42;;;;;;;23.60;10.97;;;;;;;11.29;100.00;95606.38;1032426;28;20042;-67
2021/08/27 00:56:13;;;;;;;22.23;11.18;;;;;;;11.27;100.00;95601.31;1032862;28;20031;-67
2021/08/27 00:56:43;;;;;;;23.23;11.57;;;;;;;11.28;100.00;95604.78;1028367;28;20023;-67
2021/08/27 00:57:14;;;;;;;16.37;10.37;;;;;;;11.22;100.00;95604.03;1024635;28;20066;-66
2021/08/27 00:57:44;;;;;;;18.73;10.20;;;;;;;11.23;100.00;95599.47;1028539;28;20031;-66
2021/08/27 00:58:15;;;;;;;18.13;10.67;;;;;;;11.20;100.00;95604.31;1032478;28;20026;-66
2021/08/27 00:58:45;;;;;;;22.77;10.60;;;;;;;11.18;100.00;95603.81;1040612;28;20018;-66
2021/08/27 00:59:16;;;;;;;17.93;10.53;;;;;;;11.18;100.00;95606.47;1044635;28;20543;-66
2021/08/27 00:59:47;;;;;;;20.00;10.00;;;;;;;11.17;100.00;95606.75;1040715;28;20033;-67
2021/08/27 01:00:17;;;;;;;19.63;10.67;;;;;;;11.19;100.00;95600.03;1044540;28;20021;-67
2021/08/27 01:00:48;;;;;;;20.33;10.67;;;;;;;11.18;100.00;95606.47;1044479;28;20028;-67
2021/08/27 01:01:18;;;;;;;19.07;10.93;;;;;;;11.20;100.00;95606.19;1040570;28;20026;-67
2021/08/27 01:01:49;;;;;;;21.40;10.70;;;;;;;11.19;100.00;95605.38;1040425;28;20032;-67
2021/08/27 01:02:19;;;;;;;20.07;10.97;;;;;;;11.19;100.00;95605.38;1036423;28;20018;-67
2021/08/27 01:02:51;;;;;;;21.50;10.73;;;;;;;11.19;100.00;95605.38;1032101;28;20029;-67
2021/08/27 01:03:22;;;;;;;22.05;10.55;;;;;;;11.19;100.00;95604.59;1036283;28;20032;-67
2021/08/27 01:03:53;;;;;;;19.40;11.27;;;;;;;11.22;100.00;95603.25;1032443;28;20052;-66
2021/08/27 01:04:24;;;;;;;20.10;11.00;;;;;;;11.23;100.00;95608.31;1028805;28;20045;-66
2021/08/27 01:04:54;;;;;;;20.83;10.07;;;;;;;11.23;100.00;95618.22;1032702;28;20475;-66
2021/08/27 01:05:25;;;;;;;19.77;10.57;;;;;;;11.22;100.00;95606.72;1032527;28;20494;-66
2021/08/27 01:06:09;;;;;;;22.80;10.27;;;;;;;11.22;100.00;95605.91;1024343;28;20058;-66
2021/08/27 01:06:49;;;;;;;16.80;10.00;;;;;;;11.20;100.00;95616.88;1028337;28;20101;-66
2021/08/27 01:07:22;;;;;;;21.85;10.95;;;;;;;11.19;100.00;95615.28;1027605;28;20023;-66
2021/08/27 01:07:59;;;;;;;20.77;11.18;;;;;;;11.18;100.00;95619.06;1034633;28;20026;-66
2021/08/27 01:08:36;;;;;;;19.42;10.32;;;;;;;11.15;100.00;95619.59;1028310;28;20022;-67
2021/08/27 01:09:14;;;;;;;20.98;10.75;;;;;;;11.16;100.00;95618.53;1026111;28;20070;-66
2021/08/27 01:09:59;;;;;;;22.17;11.65;;;;;;;11.15;100.00;95609.69;1031060;28;20509;-66
2021/08/27 01:10:31;;;;;;;20.65;11.02;;;;;;;11.16;100.00;95621.22;1032395;28;20026;-66
2021/08/27 01:11:11;;;;;;;24.05;11.13;;;;;;;11.15;100.00;95614.25;1038850;28;20025;-66
2021/08/27 01:12:07;;;;;;;20.65;11.35;;;;;;;11.13;100.00;95614.53;1036281;28;20065;-66
2021/08/27 01:12:43;;;;;;;23.70;11.45;;;;;;;11.11;100.00;95618.59;1037228;28;20483;-67
2021/08/27 01:13:17;;;;;;;22.55;11.75;;;;;;;11.12;100.00;95612.16;1040526;28;20025;-66
2021/08/27 01:13:51;;;;;;;19.30;10.88;;;;;;;11.11;100.00;95607.91;1044517;28;20052;-67
2021/08/27 01:14:44;;;;;;;24.00;11.35;;;;;;;11.14;100.00;95618.00;1036330;28;20119;-67
2021/08/27 01:15:18;;;;;;;23.92;10.98;;;;;;;11.12;100.00;95609.50;1036473;28;20021;-67
2021/08/27 01:16:00;;;;;;;21.30;11.02;;;;;;;11.12;100.00;95610.28;1032256;28;20030;-67
2021/08/27 01:17:17;;;;;;;24.88;11.73;;;;;;;11.15;100.00;95611.59;1036412;28;20033;-67
2021/08/27 01:17:54;;;;;;;22.08;11.40;;;;;;;11.19;100.00;95612.63;1029714;28;20525;-67
2021/08/27 01:18:49;;;;;;;25.52;11.45;;;;;;;11.18;100.00;95606.47;1040431;28;20044;-67
2021/08/27 01:20:02;;;;;;;19.35;10.85;;;;;;;11.19;100.00;95616.09;1032512;28;20026;-67
2021/08/27 01:20:46;;;;;;;19.15;10.68;;;;;;;11.17;100.00;95618.25;1036721;28;20092;-67
2021/08/27 01:21:51;;;;;;;21.00;11.73;;;;;;;11.14;100.00;95620.69;1035706;28;20049;-67
2021/08/27 01:22:40;;;;;;;25.95;11.75;;;;;;;11.10;100.00;95627.69;1036363;28;20045;-67
2021/08/27 01:23:15;;;;;;;22.23;11.48;;;;;;;11.07;100.00;95613.00;1038880;28;20029;-67
2021/08/27 01:23:48;;;;;;;27.70;12.70;;;;;;;11.07;100.00;95620.22;1040467;28;20024;-67
2021/08/27 01:24:19;;;;;;;23.23;12.50;;;;;;;11.08;100.00;95621.81;1039896;28;20100;-67
2021/08/27 01:24:49;;;;;;;26.80;12.93;;;;;;;11.09;100.00;95618.06;1036237;28;20454;-67
2021/08/27 01:25:21;;;;;;;29.63;12.90;;;;;;;11.07;100.00;95621.03;1024224;29;20011;-67
2021/08/27 01:25:53;;;;;;;30.00;13.20;;;;;;;11.08;100.00;95614.59;1024368;29;20500;-67
2021/08/27 01:26:26;;;;;;;20.73;11.85;;;;;;;11.05;100.00;95620.50;1028235;28;20018;-67
2021/08/27 01:27:01;;;;;;;22.77;12.50;;;;;;;11.02;100.00;95620.28;1029123;28;20016;-68
2021/08/27 01:27:32;;;;;;;22.08;12.02;;;;;;;11.00;100.00;95617.06;1030854;28;20014;-67
2021/08/27 01:28:03;;;;;;;20.40;12.17;;;;;;;10.99;100.00;95616.28;1032254;28;20399;-68
2021/08/27 01:28:37;;;;;;;22.88;11.43;;;;;;;10.97;100.00;95618.44;1033009;28;20015;-67
2021/08/27 01:29:08;;;;;;;25.50;12.43;;;;;;;10.97;100.00;95613.09;1035264;28;20526;-68
2021/08/27 01:30:02;;;;;;;24.60;12.43;;;;;;;10.98;100.00;95619.25;1033041;28;20033;-67
2021/08/27 01:30:39;;;;;;;26.40;12.93;;;;;;;11.00;100.00;95617.06;1039994;28;20371;-67
2021/08/27 01:31:23;;;;;;;26.02;12.25;;;;;;;10.99;100.00;95623.50;1028208;28;20026;-68
2021/08/27 01:32:06;;;;;;;24.83;12.63;;;;;;;10.95;100.00;95620.59;1020384;29;20020;-68
2021/08/27 01:32:55;;;;;;;34.33;13.32;;;;;;;10.98;100.00;95613.88;1025375;28;20384;-68
2021/08/27 01:33:26;;;;;;;25.70;12.52;;;;;;;10.98;100.00;95624.59;1029371;28;20500;-68
2021/08/27 01:34:14;;;;;;;25.33;12.50;;;;;;;10.97;100.00;95623.78;1040457;28;20021;-68
2021/08/27 01:34:44;;;;;;;28.30;12.82;;;;;;;10.92;100.00;95624.63;1040431;28;20029;-67
2021/08/27 01:35:15;;;;;;;24.07;12.87;;;;;;;10.96;100.00;95622.22;1036166;28;20009;-67
2021/08/27 01:35:47;;;;;;;25.70;13.43;;;;;;;11.00;100.00;95627.75;1032294;28;20026;-68
2021/08/27 01:36:18;;;;;;;23.95;12.65;;;;;;;11.01;100.00;95624.03;1032135;28;20026;-68
2021/08/27 01:36:48;;;;;;;25.13;12.60;;;;;;;10.98;100.00;95622.72;1028106;28;20023;-68
2021/08/27 01:37:20;;;;;;;30.10;13.90;;;;;;;10.98;100.00;95632.59;1032139;28;20025;-68
2021/08/27 01:37:51;;;;;;;29.55;14.15;;;;;;;10.97;100.00;95623.00;1032184;28;20137;-68
2021/08/27 01:38:28;;;;;;;25.15;13.32;;;;;;;10.95;100.00;95625.94;1028116;28;20026;-68
2021/08/27 01:38:58;;;;;;;22.92;12.55;;;;;;;10.95;100.00;95620.59;1029363;28;20089;-68
2021/08/27 01:39:31;;;;;;;24.03;13.17;;;;;;;10.90;100.00;95618.78;1028210;28;20507;-68
2021/08/27 01:40:01;;;;;;;27.88;13.35;;;;;;;10.93;100.00;95622.75;1032220;28;20018;-67
2021/08/27 01:40:32;;;;;;;21.57;12.27;;;;;;;10.91;100.00;95620.38;1032184;28;20479;-68
2021/08/27 01:41:03;;;;;;;25.33;12.93;;;;;;;10.91;100.00;95619.56;1028528;28;20018;-68
2021/08/27 01:41:33;;;;;;;24.05;12.65;;;;;;;10.88;100.00;95620.13;1028221;28;20015;-68
2021/08/27 01:42:05;;;;;;;24.10;12.83;;;;;;;10.90;100.00;95612.59;1028404;28;20018;-68
2021/08/27 01:42:36;;;;;;;25.02;13.02;;;;;;;10.86;100.00;95615.06;1031818;28;20447;-68
2021/08/27 01:43:07;;;;;;;21.67;12.07;;;;;;;10.85;100.00;95613.47;1032767;28;20038;-68
2021/08/27 01:43:38;;;;;;;23.90;12.85;;;;;;;10.88;100.00;95615.56;1032355;28;20467;-68
2021/08/27 01:44:10;;;;;;;21.37;12.77;;;;;;;10.88;100.00;95618.25;1032118;28;20101;-68
2021/08/27 01:44:44;;;;;;;21.73;11.73;;;;;;;10.82;100.00;95619.38;1032139;28;20018;-68
2021/08/27 01:45:15;;;;;;;19.63;11.90;;;;;;;10.82;100.00;95618.56;1036199;28;20021;-68
2021/08/27 01:45:46;;;;;;;25.00;12.15;;;;;;;10.83;100.00;95623.63;1032220;28;20371;-67
2021/08/27 01:46:16;;;;;;;20.63;12.30;;;;;;;10.83;100.00;95618.28;1036139;28;20014;-67
2021/08/27 01:46:46;;;;;;;23.60;13.80;;;;;;;10.84;100.00;95617.19;1036330;28;20264;-67
2021/08/27 01:47:21;;;;;;;27.43;13.50;;;;;;;10.88;100.00;95620.13;1032149;28;20023;-68
2021/08/27 01:47:51;;;;;;;28.50;13.23;;;;;;;10.90;100.00;95632.16;1032112;28;20011;-67
2021/08/27 01:48:22;;;;;;;25.43;12.50;;;;;;;10.88;100.00;95622.78;1032101;28;20011;-67
2021/08/27 01:48:52;;;;;;;21.07;12.17;;;;;;;10.91;100.00;95627.59;1032243;28;20073;-67
2021/08/27 01:49:23;;;;;;;22.80;13.40;;;;;;;10.92;100.00;95626.50;1032131;28;20376;-67
2021/08/27 01:49:53;;;;;;;22.87;12.83;;;;;;;10.97;100.00;95623.00;1032264;28;20018;-67
2021/08/27 01:50:24;;;;;;;22.87;12.60;;;;;;;10.99;100.00;95620.84;1028176;28;20496;-67
2021/08/27 01:50:55;;;;;;;24.80;13.37;;;;;;;11.01;100.00;95624.03;1028327;28;20054;-67
2021/08/27 01:51:26;;;;;;;22.00;13.03;;;;;;;11.02;100.00;95621.06;1032068;28;20062;-67
2021/08/27 01:51:57;;;;;;;22.25;12.30;;;;;;;11.05;100.00;95620.50;1028402;28;20058;-67
2021/08/27 01:52:27;;;;;;;27.13;13.55;;;;;;;11.07;100.00;95628.25;1028473;28;20019;-68
2021/08/27 01:52:59;;;;;;;24.97;13.27;;;;;;;11.06;100.00;95616.75;1027900;28;20019;-68
2021/08/27 01:53:29;;;;;;;27.92;13.93;;;;;;;11.07;100.00;95621.03;1027995;28;20529;-68
2021/08/27 01:54:00;;;;;;;25.43;13.43;;;;;;;11.08;100.00;95619.16;1028202;28;20041;-68
2021/08/27 01:54:31;;;;;;;27.45;13.40;;;;;;;11.09;100.00;95621.53;1024195;29;20050;-69
2021/08/27 01:55:02;;;;;;;28.97;13.97;;;;;;;11.12;100.00;95625.53;1028322;28;20439;-68
2021/08/27 01:55:33;;;;;;;22.67;14.13;;;;;;;11.09;100.00;95618.06;1032020;28;20501;-68
2021/08/27 01:56:04;;;;;;;25.90;13.18;;;;;;;11.05;100.00;95625.03;1036219;28;20041;-68
2021/08/27 01:56:36;;;;;;;27.03;13.33;;;;;;;10.99;100.00;95620.84;1035879;28;20486;-69
2021/08/27 01:57:08;;;;;;;25.55;13.50;;;;;;;10.97;100.00;95617.66;1024649;28;20437;-68
2021/08/27 01:57:38;;;;;;;27.23;13.90;;;;;;;10.97;100.00;95623.00;1032115;28;20053;-68
2021/08/27 01:58:08;;;;;;;26.80;13.47;;;;;;;10.97;100.00;95623.78;1028143;28;20030;-68
2021/08/27 01:58:39;;;;;;;27.00;14.07;;;;;;;10.99;100.00;95618.16;1024456;28;20015;-68
2021/08/27 01:59:09;;;;;;;28.83;14.27;;;;;;;11.00;100.00;95617.06;1028246;28;20015;-69
2021/08/27 01:59:42;;;;;;;24.10;13.67;;;;;;;10.96;100.00;95614.19;1032199;28;20015;-68
2021/08/27 02:00:13;;;;;;;26.25;13.50;;;;;;;10.95;100.00;95615.25;1032901;28;20025;-69
2021/08/27 02:00:43;;;;;;;24.60;13.30;;;;;;;10.97;100.00;95614.97;1028063;28;20025;-69
2021/08/27 02:01:13;;;;;;;28.23;13.00;;;;;;;10.97;100.00;95620.31;1024144;29;20015;-69
2021/08/27 02:01:44;;;;;;;26.43;14.03;;;;;;;11.00;100.00;95617.06;1028119;28;20039;-68
2021/08/27 02:02:15;;;;;;;21.63;12.63;;;;;;;11.05;100.00;95617.03;1028289;28;20011;-69
2021/08/27 02:02:45;;;;;;;25.25;13.45;;;;;;;11.06;100.00;95611.41;1028227;28;20026;-69
2021/08/27 02:03:16;;;;;;;23.03;13.77;;;;;;;11.09;100.00;95615.38;1030933;28;20030;-69
2021/08/27 02:03:46;;;;;;;22.37;12.87;;;;;;;11.11;100.00;95615.94;1031997;28;20023;-69
2021/08/27 02:04:17;;;;;;;27.13;13.80;;;;;;;11.14;100.00;95610.78;1028178;28;20031;-69
2021/08/27 02:04:50;;;;;;;24.53;13.50;;;;;;;11.16;100.00;95615.88;1024123;29;20042;-68
2021/08/27 02:05:20;;;;;;;25.60;13.57;;;;;;;11.15;100.00;95609.69;1024149;29;20046;-69
2021/08/27 02:05:50;;;;;;;27.97;14.33;;;;;;;11.10;100.00;95614.31;1024424;28;20103;-69
2021/08/27 02:06:21;;;;;;;24.47;13.67;;;;;;;11.00;100.00;95617.88;1028095;28;20038;-69
2021/08/27 02:06:52;;;;;;;21.73;12.73;;;;;;;11.00;100.00;95622.41;1028071;28;20038;-69
2021/08/27 02:07:22;;;;;;;23.90;13.57;;;;;;;11.00;100.00;95627.75;1028306;28;20030;-69
2021/08/27 02:07:53;;;;;;;26.03;14.27;;;;;;;11.02;100.00;95622.97;1028231;28;20019;-69
2021/08/27 02:08:23;;;;;;;24.07;13.73;;;;;;;11.02;100.00;95629.09;1032354;28;20490;-69
2021/08/27 02:08:54;;;;;;;26.77;13.83;;;;;;;11.04;100.00;95631.47;1036121;28;20018;-69
2021/08/27 02:09:24;;;;;;;28.23;15.53;;;;;;;11.05;100.00;95625.84;1036315;28;20046;-68
2021/08/27 02:09:55;;;;;;;26.20;13.93;;;;;;;11.07;100.00;95625.59;1036177;28;20036;-69
2021/08/27 02:10:26;;;;;;;23.92;14.30;;;;;;;11.08;100.00;95630.63;1036138;28;20018;-69
2021/08/27 02:10:56;;;;;;;25.17;13.80;;;;;;;11.09;100.00;95624.19;1032192;28;20018;-68
2021/08/27 02:11:27;;;;;;;24.47;13.80;;;;;;;11.11;100.00;95624.75;1028217;28;20566;-68
2021/08/27 02:11:57;;;;;;;28.80;14.40;;;;;;;11.16;100.00;95626.56;1032047;28;20014;-68
2021/08/27 02:12:28;;;;;;;29.87;14.80;;;;;;;11.18;100.00;95624.41;1032117;28;20080;-68
2021/08/27 02:12:59;;;;;;;26.90;13.90;;;;;;;11.20;100.00;95624.91;1031106;28;20021;-69
2021/08/27 02:13:29;;;;;;;20.98;12.27;;;;;;;11.22;100.00;95625.44;1032315;28;20520;-68
2021/08/27 02:14:00;;;;;;;28.93;14.73;;;;;;;11.24;100.00;95623.25;1032124;28;20022;-68
2021/08/27 02:14:30;;;;;;;26.40;14.57;;;;;;;11.24;100.00;95623.25;1032374;28;20022;-68
2021/08/27 02:15:01;;;;;;;29.17;14.47;;;;;;;11.22;100.00;95625.44;1036139;28;20029;-68
2021/08/27 02:15:31;;;;;;;26.60;13.93;;;;;;;11.24;100.00;95628.63;1032133;28;20026;-69
2021/08/27 02:16:05;;;;;;;22.97;13.53;;;;;;;11.25;100.00;95630.22;1036168;28;20403;-69
2021/08/27 02:16:36;;;;;;;24.15;13.15;;;;;;;11.18;100.00;95629.75;1036743;28;20025;-68
2021/08/27 02:17:06;;;;;;;22.70;12.67;;;;;;;11.16;100.00;95632.72;1036112;28;20017;-68
2021/08/27 02:17:37;;;;;;;25.30;13.13;;;;;;;11.20;100.00;95627.56;1028102;28;20066;-68
2021/08/27 02:18:07;;;;;;;24.13;12.40;;;;;;;11.17;100.00;95628.97;1028051;28;20029;-68
2021/08/27 02:18:38;;;;;;;23.40;13.37;;;;;;;11.23;100.00;95626.22;1028182;28;20035;-68
2021/08/27 02:19:08;;;;;;;23.87;13.00;;;;;;;11.25;100.00;95629.41;1028083;28;20023;-69
2021/08/27 02:19:39;;;;;;;27.70;13.33;;;;;;;11.24;100.00;95628.63;1024237;28;20031;-69
2021/08/27 02:20:09;;;;;;;22.30;12.87;;;;;;;11.25;100.00;95634.75;1027888;28;20051;-69
2021/08/27 02:20:39;;;;;;;25.10;14.27;;;;;;;11.25;100.00;95622.19;1032029;28;20038;-69
2021/08/27 02:21:10;;;;;;;26.40;13.30;;;;;;;11.28;100.00;95639.56;1039603;28;20040;-69
2021/08/27 02:21:44;;;;;;;24.92;13.18;;;;;;;11.23;100.00;95631.59;1035933;28;20025;-69
2021/08/27 02:22:16;;;;;;;22.65;13.02;;;;;;;11.17;100.00;95628.97;1035590;28;20028;-69
2021/08/27 02:22:48;;;;;;;25.88;13.65;;;;;;;11.16;100.00;95631.91;1029199;28;20026;-68
2021/08/27 02:23:23;;;;;;;26.42;14.15;;;;;;;11.17;100.00;95633.50;1032971;28;20537;-69
2021/08/27 02:23:53;;;;;;;23.65;13.20;;;;;;;11.17;100.00;95634.31;1037332;28;20060;-69
2021/08/27 02:24:29;;;;;;;24.90;14.00;;;;;;;11.14;100.00;95636.72;1032133;28;20025;-68
2021/08/27 02:25:12;;;;;;;25.45;13.60;;;;;;;11.15;100.00;95636.44;1033413;28;20407;-69
2021/08/27 02:25:45;;;;;;;21.20;12.88;;;;;;;11.09;100.00;95631.44;1036173;28;20036;-68
2021/08/27 02:26:15;;;;;;;22.08;13.23;;;;;;;11.08;100.00;95641.34;1034829;28;20097;-68
2021/08/27 02:26:46;;;;;;;24.43;13.40;;;;;;;11.09;100.00;95642.94;1034435;28;20019;-68
2021/08/27 02:27:16;;;;;;;23.83;13.30;;;;;;;11.12;100.00;95641.59;1032056;28;20014;-68
2021/08/27 02:27:47;;;;;;;24.53;13.40;;;;;;;11.08;100.00;95638.66;1028028;28;20049;-68